sensor_id;sensor_type;location;lat;lon;timestamp;P1;durP1;ratioP1;P2;durP2;ratioP2
59024;SDS011;44806;48.008;13.666;2024-03-23T00:55:10;6.88;;;3.60;;
59024;SDS011;44806;48.008;13.666;2024-03-23T00:57:38;7.97;;;3.80;;
59024;SDS011;44806;48.008;13.666;2024-03-23T01:00:04;8.40;;;4.65;;
59024;SDS011;44806;48.008;13.666;2024-03-23T01:02:35;8.07;;;4.15;;
59024;SDS011;44806;48.008;13.666;2024-03-23T01:05:01;8.45;;;4.13;;
59024;SDS011;44806;48.008;13.666;2024-03-23T01:07:28;10.00;;;5.00;;
59024;SDS011;44806;48.008;13.666;2024-03-23T01:09:56;8.85;;;4.22;;
59024;SDS011;44806;48.008;13.666;2024-03-23T01:12:23;7.22;;;3.90;;
59024;SDS011;44806;48.008;13.666;2024-03-23T01:14:49;10.10;;;3.75;;
59024;SDS011;44806;48.008;13.666;2024-03-23T01:17:16;13.23;;;5.25;;
59024;SDS011;44806;48.008;13.666;2024-03-23T01:19:42;10.60;;;4.65;;
59024;SDS011;44806;48.008;13.666;2024-03-23T01:22:09;12.07;;;5.82;;
59024;SDS011;44806;48.008;13.666;2024-03-23T01:24:35;9.32;;;4.57;;
59024;SDS011;44806;48.008;13.666;2024-03-23T01:27:04;13.10;;;5.57;;
59024;SDS011;44806;48.008;13.666;2024-03-23T01:29:30;11.48;;;5.30;;
59024;SDS011;44806;48.008;13.666;2024-03-23T01:31:57;11.10;;;5.43;;
59024;SDS011;44806;48.008;13.666;2024-03-23T01:34:23;8.40;;;3.88;;
59024;SDS011;44806;48.008;13.666;2024-03-23T01:36:50;9.70;;;3.78;;
59024;SDS011;44806;48.008;13.666;2024-03-23T01:39:16;11.50;;;4.95;;
59024;SDS011;44806;48.008;13.666;2024-03-23T01:41:43;11.05;;;4.82;;
59024;SDS011;44806;48.008;13.666;2024-03-23T01:44:11;7.30;;;3.63;;
59024;SDS011;44806;48.008;13.666;2024-03-23T01:46:38;13.70;;;4.25;;
59024;SDS011;44806;48.008;13.666;2024-03-23T01:49:04;7.70;;;3.55;;
59024;SDS011;44806;48.008;13.666;2024-03-23T01:51:32;7.10;;;3.40;;
59024;SDS011;44806;48.008;13.666;2024-03-23T01:53:58;7.15;;;3.47;;
59024;SDS011;44806;48.008;13.666;2024-03-23T01:56:28;6.13;;;3.28;;
59024;SDS011;44806;48.008;13.666;2024-03-23T01:58:55;7.93;;;3.80;;
59024;SDS011;44806;48.008;13.666;2024-03-23T02:01:24;7.90;;;3.53;;
59024;SDS011;44806;48.008;13.666;2024-03-23T02:03:50;8.32;;;3.53;;
59024;SDS011;44806;48.008;13.666;2024-03-23T02:06:17;7.22;;;3.30;;
59024;SDS011;44806;48.008;13.666;2024-03-23T02:08:43;11.70;;;3.60;;
59024;SDS011;44806;48.008;13.666;2024-03-23T02:11:10;7.13;;;3.47;;
59024;SDS011;44806;48.008;13.666;2024-03-23T02:13:36;6.55;;;2.88;;
59024;SDS011;44806;48.008;13.666;2024-03-23T02:16:04;7.68;;;3.42;;
59024;SDS011;44806;48.008;13.666;2024-03-23T02:18:32;8.65;;;3.55;;
59024;SDS011;44806;48.008;13.666;2024-03-23T02:20:59;7.78;;;3.13;;
59024;SDS011;44806;48.008;13.666;2024-03-23T02:23:27;7.20;;;3.88;;
59024;SDS011;44806;48.008;13.666;2024-03-23T02:25:54;7.50;;;3.20;;
59024;SDS011;44806;48.008;13.666;2024-03-23T02:28:20;5.55;;;2.65;;
59024;SDS011;44806;48.008;13.666;2024-03-23T02:30:47;7.03;;;3.10;;
59024;SDS011;44806;48.008;13.666;2024-03-23T02:33:14;5.88;;;2.85;;
59024;SDS011;44806;48.008;13.666;2024-03-23T02:35:41;7.35;;;3.10;;
59024;SDS011;44806;48.008;13.666;2024-03-23T02:38:07;6.43;;;2.47;;
59024;SDS011;44806;48.008;13.666;2024-03-23T02:40:35;7.75;;;3.38;;
59024;SDS011;44806;48.008;13.666;2024-03-23T02:43:02;7.68;;;3.38;;
59024;SDS011;44806;48.008;13.666;2024-03-23T02:45:29;5.85;;;2.67;;
59024;SDS011;44806;48.008;13.666;2024-03-23T02:47:55;6.38;;;3.45;;
59024;SDS011;44806;48.008;13.666;2024-03-23T02:50:22;7.53;;;2.78;;
59024;SDS011;44806;48.008;13.666;2024-03-23T02:52:48;7.00;;;3.10;;
59024;SDS011;44806;48.008;13.666;2024-03-23T02:55:15;8.18;;;3.40;;
59024;SDS011;44806;48.008;13.666;2024-03-23T02:57:43;7.95;;;3.28;;
59024;SDS011;44806;48.008;13.666;2024-03-23T03:00:10;9.18;;;4.30;;
59024;SDS011;44806;48.008;13.666;2024-03-23T03:02:38;10.23;;;3.58;;
59024;SDS011;44806;48.008;13.666;2024-03-23T03:05:05;8.18;;;2.92;;
59024;SDS011;44806;48.008;13.666;2024-03-23T03:07:32;7.50;;;3.13;;
59024;SDS011;44806;48.008;13.666;2024-03-23T03:09:59;7.05;;;3.25;;
59024;SDS011;44806;48.008;13.666;2024-03-23T03:12:25;6.15;;;2.92;;
59024;SDS011;44806;48.008;13.666;2024-03-23T03:14:53;6.25;;;2.72;;
59024;SDS011;44806;48.008;13.666;2024-03-23T03:17:19;7.40;;;2.75;;
59024;SDS011;44806;48.008;13.666;2024-03-23T03:19:46;5.10;;;2.30;;
59024;SDS011;44806;48.008;13.666;2024-03-23T03:22:13;5.97;;;2.28;;
59024;SDS011;44806;48.008;13.666;2024-03-23T03:24:40;5.88;;;1.92;;
59024;SDS011;44806;48.008;13.666;2024-03-23T03:27:06;5.18;;;1.92;;
59024;SDS011;44806;48.008;13.666;2024-03-23T03:29:33;8.88;;;2.63;;
59024;SDS011;44806;48.008;13.666;2024-03-23T03:34:42;5.47;;;2.10;;
59024;SDS011;44806;48.008;13.666;2024-03-23T03:37:09;7.88;;;2.97;;
59024;SDS011;44806;48.008;13.666;2024-03-23T03:39:35;9.48;;;2.70;;
59024;SDS011;44806;48.008;13.666;2024-03-23T03:42:03;9.52;;;2.35;;
59024;SDS011;44806;48.008;13.666;2024-03-23T03:44:31;7.80;;;2.45;;
59024;SDS011;44806;48.008;13.666;2024-03-23T03:46:59;5.28;;;2.00;;
59024;SDS011;44806;48.008;13.666;2024-03-23T03:49:25;5.05;;;1.92;;
59024;SDS011;44806;48.008;13.666;2024-03-23T03:51:53;4.55;;;2.17;;
59024;SDS011;44806;48.008;13.666;2024-03-23T03:54:19;5.32;;;1.80;;
59024;SDS011;44806;48.008;13.666;2024-03-23T03:56:46;4.00;;;1.88;;
59024;SDS011;44806;48.008;13.666;2024-03-23T03:59:13;5.00;;;2.40;;
59024;SDS011;44806;48.008;13.666;2024-03-23T04:01:40;7.88;;;2.55;;
59024;SDS011;44806;48.008;13.666;2024-03-23T04:04:06;5.80;;;2.17;;
59024;SDS011;44806;48.008;13.666;2024-03-23T04:06:33;6.55;;;2.03;;
59024;SDS011;44806;48.008;13.666;2024-03-23T04:09:02;4.18;;;1.92;;
59024;SDS011;44806;48.008;13.666;2024-03-23T04:11:29;9.82;;;2.75;;
59024;SDS011;44806;48.008;13.666;2024-03-23T04:13:55;5.13;;;2.42;;
59024;SDS011;44806;48.008;13.666;2024-03-23T04:16:26;6.05;;;2.55;;
59024;SDS011;44806;48.008;13.666;2024-03-23T04:18:52;5.57;;;1.88;;
59024;SDS011;44806;48.008;13.666;2024-03-23T04:21:20;8.27;;;2.22;;
59024;SDS011;44806;48.008;13.666;2024-03-23T04:23:47;7.90;;;2.78;;
59024;SDS011;44806;48.008;13.666;2024-03-23T04:26:16;5.95;;;2.80;;
59024;SDS011;44806;48.008;13.666;2024-03-23T04:28:42;5.18;;;2.50;;
59024;SDS011;44806;48.008;13.666;2024-03-23T04:31:09;6.18;;;3.00;;
59024;SDS011;44806;48.008;13.666;2024-03-23T04:33:35;6.57;;;3.08;;
59024;SDS011;44806;48.008;13.666;2024-03-23T04:36:02;7.15;;;3.03;;
59024;SDS011;44806;48.008;13.666;2024-03-23T04:38:29;7.55;;;3.70;;
59024;SDS011;44806;48.008;13.666;2024-03-23T04:40:56;7.72;;;3.10;;
59024;SDS011;44806;48.008;13.666;2024-03-23T04:43:25;6.03;;;2.88;;
59024;SDS011;44806;48.008;13.666;2024-03-23T04:45:52;6.72;;;2.85;;
59024;SDS011;44806;48.008;13.666;2024-03-23T04:48:20;9.68;;;3.05;;
59024;SDS011;44806;48.008;13.666;2024-03-23T04:50:48;9.82;;;3.33;;
59024;SDS011;44806;48.008;13.666;2024-03-23T04:53:15;6.07;;;2.65;;
59024;SDS011;44806;48.008;13.666;2024-03-23T04:55:42;6.05;;;2.92;;
59024;SDS011;44806;48.008;13.666;2024-03-23T04:58:10;9.18;;;3.67;;
59024;SDS011;44806;48.008;13.666;2024-03-23T05:00:37;7.05;;;2.90;;
59024;SDS011;44806;48.008;13.666;2024-03-23T05:03:04;8.20;;;2.78;;
59024;SDS011;44806;48.008;13.666;2024-03-23T05:05:32;7.38;;;2.90;;
59024;SDS011;44806;48.008;13.666;2024-03-23T05:07:58;8.30;;;3.28;;
59024;SDS011;44806;48.008;13.666;2024-03-23T05:10:25;7.10;;;3.05;;
59024;SDS011;44806;48.008;13.666;2024-03-23T05:12:51;8.20;;;3.00;;
59024;SDS011;44806;48.008;13.666;2024-03-23T05:15:18;6.20;;;2.65;;
59024;SDS011;44806;48.008;13.666;2024-03-23T05:17:45;5.57;;;2.40;;
59024;SDS011;44806;48.008;13.666;2024-03-23T05:20:12;6.82;;;2.70;;
59024;SDS011;44806;48.008;13.666;2024-03-23T05:22:39;5.70;;;2.75;;
59024;SDS011;44806;48.008;13.666;2024-03-23T05:25:06;5.18;;;2.10;;
59024;SDS011;44806;48.008;13.666;2024-03-23T05:27:34;6.88;;;2.80;;
59024;SDS011;44806;48.008;13.666;2024-03-23T05:30:02;8.63;;;3.17;;
59024;SDS011;44806;48.008;13.666;2024-03-23T05:32:28;6.57;;;2.60;;
59024;SDS011;44806;48.008;13.666;2024-03-23T05:34:57;8.50;;;2.83;;
59024;SDS011;44806;48.008;13.666;2024-03-23T05:37:23;7.72;;;3.33;;
59024;SDS011;44806;48.008;13.666;2024-03-23T05:39:50;10.70;;;2.70;;
59024;SDS011;44806;48.008;13.666;2024-03-23T05:42:16;9.48;;;3.28;;
59024;SDS011;44806;48.008;13.666;2024-03-23T05:44:44;5.00;;;2.28;;
59024;SDS011;44806;48.008;13.666;2024-03-23T05:52:05;7.55;;;3.15;;
59024;SDS011;44806;48.008;13.666;2024-03-23T05:54:32;5.38;;;2.47;;
59024;SDS011;44806;48.008;13.666;2024-03-23T05:56:58;6.55;;;2.90;;
59024;SDS011;44806;48.008;13.666;2024-03-23T05:59:25;5.97;;;2.67;;
59024;SDS011;44806;48.008;13.666;2024-03-23T06:01:52;6.22;;;2.65;;
59024;SDS011;44806;48.008;13.666;2024-03-23T06:04:19;7.03;;;3.00;;
59024;SDS011;44806;48.008;13.666;2024-03-23T06:06:45;7.85;;;3.30;;
59024;SDS011;44806;48.008;13.666;2024-03-23T06:09:13;9.00;;;3.00;;
59024;SDS011;44806;48.008;13.666;2024-03-23T06:11:39;6.60;;;2.92;;
59024;SDS011;44806;48.008;13.666;2024-03-23T06:14:06;9.13;;;3.20;;
59024;SDS011;44806;48.008;13.666;2024-03-23T06:16:32;7.15;;;3.38;;
59024;SDS011;44806;48.008;13.666;2024-03-23T06:18:59;7.03;;;2.67;;
59024;SDS011;44806;48.008;13.666;2024-03-23T06:21:28;7.25;;;3.35;;
59024;SDS011;44806;48.008;13.666;2024-03-23T06:23:56;5.97;;;2.67;;
59024;SDS011;44806;48.008;13.666;2024-03-23T06:26:23;8.65;;;2.80;;
59024;SDS011;44806;48.008;13.666;2024-03-23T06:28:50;6.47;;;2.60;;
59024;SDS011;44806;48.008;13.666;2024-03-23T06:31:16;7.65;;;3.00;;
59024;SDS011;44806;48.008;13.666;2024-03-23T06:33:43;5.28;;;2.67;;
59024;SDS011;44806;48.008;13.666;2024-03-23T06:36:10;5.30;;;2.15;;
59024;SDS011;44806;48.008;13.666;2024-03-23T06:38:37;6.38;;;2.60;;
59024;SDS011;44806;48.008;13.666;2024-03-23T06:41:03;5.35;;;2.58;;
59024;SDS011;44806;48.008;13.666;2024-03-23T06:43:32;7.78;;;3.38;;
59024;SDS011;44806;48.008;13.666;2024-03-23T06:45:58;6.88;;;2.90;;
59024;SDS011;44806;48.008;13.666;2024-03-23T06:48:25;7.72;;;4.22;;
59024;SDS011;44806;48.008;13.666;2024-03-23T06:50:55;9.23;;;4.88;;
59024;SDS011;44806;48.008;13.666;2024-03-23T06:53:22;9.85;;;6.43;;
59024;SDS011;44806;48.008;13.666;2024-03-23T06:55:50;6.40;;;3.40;;
59024;SDS011;44806;48.008;13.666;2024-03-23T06:58:19;5.60;;;2.55;;
59024;SDS011;44806;48.008;13.666;2024-03-23T07:00:47;4.80;;;2.25;;
59024;SDS011;44806;48.008;13.666;2024-03-23T07:03:14;6.07;;;2.50;;
59024;SDS011;44806;48.008;13.666;2024-03-23T07:05:40;7.30;;;2.50;;
59024;SDS011;44806;48.008;13.666;2024-03-23T07:08:07;5.47;;;2.05;;
59024;SDS011;44806;48.008;13.666;2024-03-23T07:10:33;4.53;;;2.15;;
59024;SDS011;44806;48.008;13.666;2024-03-23T07:13:00;5.47;;;2.20;;
59024;SDS011;44806;48.008;13.666;2024-03-23T07:15:26;5.05;;;2.00;;
59024;SDS011;44806;48.008;13.666;2024-03-23T07:17:55;5.78;;;2.15;;
59024;SDS011;44806;48.008;13.666;2024-03-23T07:20:21;5.22;;;1.92;;
59024;SDS011;44806;48.008;13.666;2024-03-23T07:22:48;4.68;;;1.75;;
59024;SDS011;44806;48.008;13.666;2024-03-23T07:25:14;7.32;;;2.03;;
59024;SDS011;44806;48.008;13.666;2024-03-23T07:27:42;4.00;;;1.60;;
59024;SDS011;44806;48.008;13.666;2024-03-23T07:30:08;8.88;;;1.67;;
59024;SDS011;44806;48.008;13.666;2024-03-23T07:32:35;4.95;;;1.98;;
59024;SDS011;44806;48.008;13.666;2024-03-23T07:35:03;4.13;;;1.80;;
59024;SDS011;44806;48.008;13.666;2024-03-23T07:37:31;5.05;;;1.67;;
59024;SDS011;44806;48.008;13.666;2024-03-23T07:39:57;6.82;;;2.55;;
59024;SDS011;44806;48.008;13.666;2024-03-23T07:42:24;5.25;;;2.03;;
59024;SDS011;44806;48.008;13.666;2024-03-23T07:44:51;4.65;;;1.77;;
59024;SDS011;44806;48.008;13.666;2024-03-23T07:47:20;5.53;;;1.85;;
59024;SDS011;44806;48.008;13.666;2024-03-23T07:49:46;6.68;;;2.00;;
59024;SDS011;44806;48.008;13.666;2024-03-23T07:52:14;14.05;;;2.60;;
59024;SDS011;44806;48.008;13.666;2024-03-23T07:54:40;6.07;;;1.88;;
59024;SDS011;44806;48.008;13.666;2024-03-23T07:57:08;3.90;;;1.42;;
59024;SDS011;44806;48.008;13.666;2024-03-23T07:59:34;8.02;;;1.75;;
59024;SDS011;44806;48.008;13.666;2024-03-23T08:02:01;5.78;;;2.10;;
59024;SDS011;44806;48.008;13.666;2024-03-23T08:04:28;5.72;;;1.73;;
59024;SDS011;44806;48.008;13.666;2024-03-23T08:06:55;5.55;;;1.85;;
59024;SDS011;44806;48.008;13.666;2024-03-23T08:09:23;4.20;;;1.52;;
59024;SDS011;44806;48.008;13.666;2024-03-23T08:11:50;5.28;;;1.60;;
59024;SDS011;44806;48.008;13.666;2024-03-23T08:14:16;3.72;;;1.60;;
59024;SDS011;44806;48.008;13.666;2024-03-23T08:16:43;5.65;;;2.15;;
59024;SDS011;44806;48.008;13.666;2024-03-23T08:19:13;5.10;;;1.67;;
59024;SDS011;44806;48.008;13.666;2024-03-23T08:21:40;5.75;;;1.77;;
59024;SDS011;44806;48.008;13.666;2024-03-23T08:24:07;8.52;;;2.50;;
59024;SDS011;44806;48.008;13.666;2024-03-23T08:26:35;4.93;;;1.60;;
59024;SDS011;44806;48.008;13.666;2024-03-23T08:29:02;7.97;;;1.90;;
59024;SDS011;44806;48.008;13.666;2024-03-23T08:31:30;5.05;;;1.92;;
59024;SDS011;44806;48.008;13.666;2024-03-23T08:33:56;6.25;;;1.60;;
59024;SDS011;44806;48.008;13.666;2024-03-23T08:36:23;4.32;;;1.55;;
59024;SDS011;44806;48.008;13.666;2024-03-23T08:38:49;3.90;;;1.50;;
59024;SDS011;44806;48.008;13.666;2024-03-23T08:41:18;4.38;;;1.20;;
59024;SDS011;44806;48.008;13.666;2024-03-23T08:43:46;2.50;;;1.02;;
59024;SDS011;44806;48.008;13.666;2024-03-23T08:46:14;2.50;;;0.88;;
59024;SDS011;44806;48.008;13.666;2024-03-23T08:48:41;5.78;;;1.25;;
59024;SDS011;44806;48.008;13.666;2024-03-23T08:51:10;2.70;;;0.90;;
59024;SDS011;44806;48.008;13.666;2024-03-23T08:53:37;3.33;;;0.85;;
59024;SDS011;44806;48.008;13.666;2024-03-23T08:56:06;3.20;;;1.17;;
59024;SDS011;44806;48.008;13.666;2024-03-23T08:58:33;3.85;;;1.02;;
59024;SDS011;44806;48.008;13.666;2024-03-23T09:01:04;3.50;;;1.50;;
59024;SDS011;44806;48.008;13.666;2024-03-23T09:03:32;3.88;;;1.25;;
59024;SDS011;44806;48.008;13.666;2024-03-23T09:05:59;4.43;;;1.13;;
59024;SDS011;44806;48.008;13.666;2024-03-23T09:08:25;4.05;;;1.48;;
59024;SDS011;44806;48.008;13.666;2024-03-23T09:10:52;2.72;;;0.85;;
59024;SDS011;44806;48.008;13.666;2024-03-23T09:13:18;3.53;;;1.20;;
59024;SDS011;44806;48.008;13.666;2024-03-23T09:15:46;3.70;;;1.20;;
59024;SDS011;44806;48.008;13.666;2024-03-23T09:18:15;3.17;;;1.00;;
59024;SDS011;44806;48.008;13.666;2024-03-23T09:20:42;7.57;;;1.42;;
59024;SDS011;44806;48.008;13.666;2024-03-23T09:23:08;7.00;;;1.10;;
59024;SDS011;44806;48.008;13.666;2024-03-23T09:25:38;2.70;;;1.08;;
59024;SDS011;44806;48.008;13.666;2024-03-23T09:28:05;3.35;;;0.90;;
59024;SDS011;44806;48.008;13.666;2024-03-23T09:30:34;2.15;;;0.85;;
59024;SDS011;44806;48.008;13.666;2024-03-23T09:33:00;4.68;;;1.15;;
59024;SDS011;44806;48.008;13.666;2024-03-23T09:35:29;4.50;;;0.80;;
59024;SDS011;44806;48.008;13.666;2024-03-23T09:37:55;1.98;;;0.90;;
59024;SDS011;44806;48.008;13.666;2024-03-23T09:40:22;2.13;;;0.85;;
59024;SDS011;44806;48.008;13.666;2024-03-23T09:42:51;3.50;;;0.90;;
59024;SDS011;44806;48.008;13.666;2024-03-23T09:45:20;3.13;;;1.13;;
59024;SDS011;44806;48.008;13.666;2024-03-23T09:47:47;3.45;;;0.93;;
59024;SDS011;44806;48.008;13.666;2024-03-23T09:50:16;6.47;;;1.33;;
59024;SDS011;44806;48.008;13.666;2024-03-23T09:52:44;2.80;;;1.02;;
59024;SDS011;44806;48.008;13.666;2024-03-23T09:55:13;2.70;;;1.10;;
59024;SDS011;44806;48.008;13.666;2024-03-23T09:57:39;4.15;;;1.10;;
59024;SDS011;44806;48.008;13.666;2024-03-23T10:00:06;3.03;;;1.10;;
59024;SDS011;44806;48.008;13.666;2024-03-23T10:02:33;2.05;;;0.82;;
59024;SDS011;44806;48.008;13.666;2024-03-23T10:05:01;3.80;;;0.88;;
59024;SDS011;44806;48.008;13.666;2024-03-23T10:07:27;3.28;;;1.00;;
59024;SDS011;44806;48.008;13.666;2024-03-23T10:09:56;5.38;;;0.90;;
59024;SDS011;44806;48.008;13.666;2024-03-23T10:12:23;6.97;;;1.20;;
59024;SDS011;44806;48.008;13.666;2024-03-23T10:14:50;2.55;;;0.75;;
59024;SDS011;44806;48.008;13.666;2024-03-23T10:17:18;4.45;;;1.30;;
59024;SDS011;44806;48.008;13.666;2024-03-23T10:19:49;2.85;;;1.05;;
59024;SDS011;44806;48.008;13.666;2024-03-23T10:22:17;2.42;;;0.88;;
59024;SDS011;44806;48.008;13.666;2024-03-23T10:24:45;2.97;;;1.00;;
59024;SDS011;44806;48.008;13.666;2024-03-23T10:27:15;3.60;;;0.85;;
59024;SDS011;44806;48.008;13.666;2024-03-23T10:29:42;1.30;;;0.65;;
59024;SDS011;44806;48.008;13.666;2024-03-23T10:34:36;2.47;;;0.73;;
59024;SDS011;44806;48.008;13.666;2024-03-23T10:37:03;2.22;;;0.55;;
59024;SDS011;44806;48.008;13.666;2024-03-23T10:39:32;2.03;;;0.82;;
59024;SDS011;44806;48.008;13.666;2024-03-23T10:42:00;12.85;;;1.70;;
59024;SDS011;44806;48.008;13.666;2024-03-23T10:44:32;3.53;;;0.82;;
59024;SDS011;44806;48.008;13.666;2024-03-23T10:46:58;2.35;;;0.65;;
59024;SDS011;44806;48.008;13.666;2024-03-23T10:49:26;4.95;;;0.63;;
59024;SDS011;44806;48.008;13.666;2024-03-23T10:51:55;2.95;;;0.90;;
59024;SDS011;44806;48.008;13.666;2024-03-23T10:54:24;1.08;;;0.50;;
59024;SDS011;44806;48.008;13.666;2024-03-23T10:56:50;1.83;;;0.70;;
59024;SDS011;44806;48.008;13.666;2024-03-23T10:59:26;2.08;;;0.80;;
59024;SDS011;44806;48.008;13.666;2024-03-23T11:04:31;2.42;;;0.77;;
59024;SDS011;44806;48.008;13.666;2024-03-23T11:06:57;4.40;;;0.60;;
59024;SDS011;44806;48.008;13.666;2024-03-23T11:09:40;2.08;;;0.75;;
59024;SDS011;44806;48.008;13.666;2024-03-23T11:12:25;1.70;;;0.60;;
59024;SDS011;44806;48.008;13.666;2024-03-23T11:14:56;3.13;;;0.70;;
59024;SDS011;44806;48.008;13.666;2024-03-23T11:17:25;1.73;;;0.60;;
59024;SDS011;44806;48.008;13.666;2024-03-23T11:19:53;2.28;;;0.50;;
59024;SDS011;44806;48.008;13.666;2024-03-23T11:22:40;2.78;;;0.65;;
59024;SDS011;44806;48.008;13.666;2024-03-23T11:25:18;1.65;;;0.60;;
59024;SDS011;44806;48.008;13.666;2024-03-23T11:27:46;1.70;;;0.60;;
59024;SDS011;44806;48.008;13.666;2024-03-23T11:30:14;1.77;;;0.43;;
59024;SDS011;44806;48.008;13.666;2024-03-23T11:32:44;2.55;;;0.50;;
59024;SDS011;44806;48.008;13.666;2024-03-23T11:35:25;2.65;;;0.77;;
59024;SDS011;44806;48.008;13.666;2024-03-23T11:38:01;1.08;;;0.50;;
59024;SDS011;44806;48.008;13.666;2024-03-23T11:40:35;2.78;;;0.63;;
59024;SDS011;44806;48.008;13.666;2024-03-23T11:43:02;1.88;;;0.90;;
59024;SDS011;44806;48.008;13.666;2024-03-23T11:45:33;5.18;;;0.95;;
59024;SDS011;44806;48.008;13.666;2024-03-23T11:48:17;1.85;;;0.55;;
59024;SDS011;44806;48.008;13.666;2024-03-23T11:50:46;3.38;;;0.60;;
59024;SDS011;44806;48.008;13.666;2024-03-23T11:53:14;2.40;;;0.70;;
59024;SDS011;44806;48.008;13.666;2024-03-23T11:55:42;10.15;;;1.13;;
59024;SDS011;44806;48.008;13.666;2024-03-23T11:58:12;1.83;;;0.80;;
59024;SDS011;44806;48.008;13.666;2024-03-23T12:00:40;2.22;;;0.70;;
59024;SDS011;44806;48.008;13.666;2024-03-23T12:03:08;3.53;;;1.08;;
59024;SDS011;44806;48.008;13.666;2024-03-23T12:05:36;3.15;;;1.00;;
59024;SDS011;44806;48.008;13.666;2024-03-23T12:11:04;2.33;;;0.75;;
59024;SDS011;44806;48.008;13.666;2024-03-23T12:13:31;2.55;;;0.85;;
59024;SDS011;44806;48.008;13.666;2024-03-23T12:16:08;2.17;;;0.70;;
59024;SDS011;44806;48.008;13.666;2024-03-23T12:18:37;1.48;;;0.60;;
59024;SDS011;44806;48.008;13.666;2024-03-23T12:21:06;1.48;;;0.60;;
59024;SDS011;44806;48.008;13.666;2024-03-23T12:23:32;1.60;;;0.50;;
59024;SDS011;44806;48.008;13.666;2024-03-23T12:25:59;1.17;;;0.60;;
59024;SDS011;44806;48.008;13.666;2024-03-23T12:28:25;1.80;;;0.60;;
59024;SDS011;44806;48.008;13.666;2024-03-23T12:30:52;1.75;;;0.40;;
59024;SDS011;44806;48.008;13.666;2024-03-23T12:35:47;1.65;;;0.40;;
59024;SDS011;44806;48.008;13.666;2024-03-23T12:38:13;2.15;;;0.55;;
59024;SDS011;44806;48.008;13.666;2024-03-23T12:40:41;1.45;;;0.73;;
59024;SDS011;44806;48.008;13.666;2024-03-23T12:43:07;1.73;;;0.52;;
59024;SDS011;44806;48.008;13.666;2024-03-23T12:45:34;0.50;;;0.30;;
59024;SDS011;44806;48.008;13.666;2024-03-23T12:48:00;2.63;;;0.95;;
59024;SDS011;44806;48.008;13.666;2024-03-23T12:50:27;0.98;;;0.30;;
59024;SDS011;44806;48.008;13.666;2024-03-23T12:52:54;1.00;;;0.30;;
59024;SDS011;44806;48.008;13.666;2024-03-23T12:55:21;1.67;;;0.85;;
59024;SDS011;44806;48.008;13.666;2024-03-23T12:57:47;1.08;;;0.50;;
59024;SDS011;44806;48.008;13.666;2024-03-23T13:00:15;3.58;;;0.50;;
59024;SDS011;44806;48.008;13.666;2024-03-23T13:02:42;2.33;;;0.68;;
59024;SDS011;44806;48.008;13.666;2024-03-23T13:05:09;0.55;;;0.20;;
59024;SDS011;44806;48.008;13.666;2024-03-23T13:07:35;1.05;;;0.30;;
59024;SDS011;44806;48.008;13.666;2024-03-23T13:10:05;1.02;;;0.30;;
59024;SDS011;44806;48.008;13.666;2024-03-23T13:12:32;3.65;;;1.58;;
59024;SDS011;44806;48.008;13.666;2024-03-23T13:14:59;1.95;;;0.40;;
59024;SDS011;44806;48.008;13.666;2024-03-23T13:19:53;0.73;;;0.20;;
59024;SDS011;44806;48.008;13.666;2024-03-23T13:22:19;2.10;;;0.30;;
59024;SDS011;44806;48.008;13.666;2024-03-23T13:24:46;1.15;;;0.20;;
59024;SDS011;44806;48.008;13.666;2024-03-23T13:27:13;5.85;;;0.63;;
59024;SDS011;44806;48.008;13.666;2024-03-23T13:29:40;2.17;;;0.75;;
59024;SDS011;44806;48.008;13.666;2024-03-23T13:32:08;0.80;;;0.25;;
59024;SDS011;44806;48.008;13.666;2024-03-23T13:34:35;2.28;;;0.63;;
59024;SDS011;44806;48.008;13.666;2024-03-23T13:37:01;2.10;;;0.60;;
59024;SDS011;44806;48.008;13.666;2024-03-23T13:39:28;2.10;;;0.60;;
59024;SDS011;44806;48.008;13.666;2024-03-23T13:41:55;2.33;;;0.50;;
59024;SDS011;44806;48.008;13.666;2024-03-23T13:44:24;2.50;;;0.57;;
59024;SDS011;44806;48.008;13.666;2024-03-23T13:46:50;1.10;;;0.40;;
59024;SDS011;44806;48.008;13.666;2024-03-23T13:49:23;2.83;;;0.65;;
59024;SDS011;44806;48.008;13.666;2024-03-23T13:51:51;1.45;;;0.57;;
59024;SDS011;44806;48.008;13.666;2024-03-23T13:54:19;1.70;;;0.50;;
59024;SDS011;44806;48.008;13.666;2024-03-23T13:56:46;2.05;;;0.40;;
59024;SDS011;44806;48.008;13.666;2024-03-23T13:59:14;2.03;;;0.60;;
59024;SDS011;44806;48.008;13.666;2024-03-23T14:01:42;1.17;;;0.50;;
59024;SDS011;44806;48.008;13.666;2024-03-23T14:04:09;2.28;;;0.70;;
59024;SDS011;44806;48.008;13.666;2024-03-23T14:06:36;1.92;;;0.50;;
59024;SDS011;44806;48.008;13.666;2024-03-23T14:09:03;2.38;;;0.70;;
59024;SDS011;44806;48.008;13.666;2024-03-23T14:11:29;1.88;;;0.50;;
59024;SDS011;44806;48.008;13.666;2024-03-23T14:13:56;2.17;;;0.70;;
59024;SDS011;44806;48.008;13.666;2024-03-23T14:16:22;1.58;;;0.63;;
59024;SDS011;44806;48.008;13.666;2024-03-23T14:18:51;2.05;;;0.70;;
59024;SDS011;44806;48.008;13.666;2024-03-23T14:21:17;2.60;;;0.63;;
59024;SDS011;44806;48.008;13.666;2024-03-23T14:23:44;24.55;;;2.03;;
59024;SDS011;44806;48.008;13.666;2024-03-23T14:26:10;3.13;;;0.70;;
59024;SDS011;44806;48.008;13.666;2024-03-23T14:28:37;1.25;;;0.30;;
59024;SDS011;44806;48.008;13.666;2024-03-23T14:31:03;2.25;;;0.60;;
59024;SDS011;44806;48.008;13.666;2024-03-23T14:33:35;1.50;;;0.60;;
59024;SDS011;44806;48.008;13.666;2024-03-23T14:36:04;1.00;;;0.40;;
59024;SDS011;44806;48.008;13.666;2024-03-23T14:38:32;2.25;;;0.40;;
59024;SDS011;44806;48.008;13.666;2024-03-23T14:40:58;5.25;;;1.73;;
59024;SDS011;44806;48.008;13.666;2024-03-23T14:43:26;3.50;;;0.93;;
59024;SDS011;44806;48.008;13.666;2024-03-23T14:46:08;2.67;;;0.55;;
59024;SDS011;44806;48.008;13.666;2024-03-23T14:48:36;1.80;;;0.65;;
59024;SDS011;44806;48.008;13.666;2024-03-23T14:53:31;4.75;;;0.90;;
59024;SDS011;44806;48.008;13.666;2024-03-23T14:58:25;2.00;;;0.98;;
59024;SDS011;44806;48.008;13.666;2024-03-23T15:00:51;5.95;;;1.95;;
59024;SDS011;44806;48.008;13.666;2024-03-23T15:03:19;3.83;;;2.00;;
59024;SDS011;44806;48.008;13.666;2024-03-23T15:05:51;4.30;;;1.77;;
59024;SDS011;44806;48.008;13.666;2024-03-23T15:08:20;2.78;;;1.13;;
59024;SDS011;44806;48.008;13.666;2024-03-23T15:10:47;2.35;;;0.80;;
59024;SDS011;44806;48.008;13.666;2024-03-23T15:13:14;3.75;;;0.50;;
59024;SDS011;44806;48.008;13.666;2024-03-23T15:15:40;2.53;;;0.70;;
59024;SDS011;44806;48.008;13.666;2024-03-23T15:18:09;1.48;;;0.50;;
59024;SDS011;44806;48.008;13.666;2024-03-23T15:23:02;2.13;;;0.70;;
59024;SDS011;44806;48.008;13.666;2024-03-23T15:25:30;2.60;;;1.15;;
59024;SDS011;44806;48.008;13.666;2024-03-23T15:27:57;2.95;;;0.73;;
59024;SDS011;44806;48.008;13.666;2024-03-23T15:30:25;5.47;;;2.10;;
59024;SDS011;44806;48.008;13.666;2024-03-23T15:32:52;3.67;;;1.00;;
59024;SDS011;44806;48.008;13.666;2024-03-23T15:35:18;2.60;;;1.02;;
59024;SDS011;44806;48.008;13.666;2024-03-23T15:37:48;1.80;;;0.63;;
59024;SDS011;44806;48.008;13.666;2024-03-23T15:40:14;5.13;;;0.73;;
59024;SDS011;44806;48.008;13.666;2024-03-23T15:42:42;2.50;;;0.68;;
59024;SDS011;44806;48.008;13.666;2024-03-23T15:45:08;2.30;;;0.85;;
59024;SDS011;44806;48.008;13.666;2024-03-23T15:47:36;2.55;;;0.90;;
59024;SDS011;44806;48.008;13.666;2024-03-23T15:50:02;2.92;;;1.02;;
59024;SDS011;44806;48.008;13.666;2024-03-23T15:52:33;1.70;;;0.70;;
59024;SDS011;44806;48.008;13.666;2024-03-23T15:55:00;1.40;;;0.52;;
59024;SDS011;44806;48.008;13.666;2024-03-23T15:57:30;1.52;;;0.60;;